createdAt,value
2023-05-17T00:00:12.477Z,2.17
2023-05-17T00:02:40.738Z,1.57
2023-05-17T00:05:09.480Z,1.67
2023-05-17T00:07:39.145Z,2.30
2023-05-17T00:10:07.886Z,3.17
2023-05-17T00:12:36.124Z,2.20
2023-05-17T00:15:04.436Z,2.10
2023-05-17T00:17:32.766Z,2.53
2023-05-17T00:20:01.069Z,1.70
2023-05-17T00:22:29.342Z,2.47
2023-05-17T00:24:58.938Z,1.60
2023-05-17T00:27:27.215Z,1.70
2023-05-17T00:29:55.478Z,1.90
2023-05-17T00:32:23.788Z,2.00
2023-05-17T00:34:52.092Z,1.97
2023-05-17T00:37:20.381Z,1.93
2023-05-17T00:39:48.635Z,2.00
2023-05-17T00:42:18.261Z,2.07
2023-05-17T00:44:46.516Z,1.60
2023-05-17T00:47:14.817Z,2.93
2023-05-17T00:49:43.214Z,2.20
2023-05-17T00:52:11.498Z,3.10
2023-05-17T00:54:39.904Z,2.20
2023-05-17T00:57:08.277Z,2.10
2023-05-17T00:59:37.990Z,2.40
2023-05-17T01:02:06.526Z,2.10
2023-05-17T01:04:34.784Z,2.27
2023-05-17T01:07:03.362Z,2.30
2023-05-17T01:09:31.942Z,2.30
2023-05-17T01:12:15.368Z,2.43
2023-05-17T01:14:49.405Z,3.50
2023-05-17T01:17:19.058Z,3.10
2023-05-17T01:19:52.302Z,3.20
2023-05-17T01:22:28.289Z,2.50
2023-05-17T01:25:03.198Z,2.47
2023-05-17T01:27:33.614Z,3.70
2023-05-17T01:30:03.582Z,3.20
2023-05-17T01:32:33.241Z,3.90
2023-05-17T01:35:01.655Z,3.53
2023-05-17T01:37:29.951Z,3.83
2023-05-17T01:39:58.210Z,3.67
2023-05-17T01:42:33.870Z,3.27
2023-05-17T01:45:06.134Z,3.40
2023-05-17T01:47:38.576Z,3.57
2023-05-17T01:50:08.671Z,4.17
2023-05-17T01:52:39.572Z,3.50
2023-05-17T01:55:11.319Z,3.67
2023-05-17T01:57:39.782Z,4.53
2023-05-17T02:00:10.384Z,3.67
2023-05-17T02:02:39.056Z,3.73
2023-05-17T02:05:08.248Z,4.07
2023-05-17T02:07:36.569Z,3.70
2023-05-17T02:10:04.861Z,3.53
2023-05-17T02:12:33.090Z,4.00
2023-05-17T02:15:01.359Z,2.47
2023-05-17T02:17:31.191Z,4.00
2023-05-17T02:19:59.531Z,4.70
2023-05-17T02:22:27.772Z,4.17
2023-05-17T02:24:56.615Z,4.20
2023-05-17T02:27:24.823Z,4.60
2023-05-17T02:29:53.086Z,4.67
2023-05-17T02:32:21.326Z,4.67
2023-05-17T02:34:50.957Z,7.57
2023-05-17T02:37:19.221Z,4.40
2023-05-17T02:39:47.482Z,4.80
2023-05-17T02:42:15.728Z,4.53
2023-05-17T02:44:44.026Z,4.67
2023-05-17T02:47:12.346Z,4.90
2023-05-17T02:49:40.873Z,5.17
2023-05-17T02:52:11.148Z,4.83
2023-05-17T02:54:39.982Z,4.50
2023-05-17T02:57:08.203Z,4.73
2023-05-17T02:59:36.508Z,5.70
2023-05-17T03:02:04.774Z,4.80
2023-05-17T03:04:33.946Z,5.90
2023-05-17T03:07:02.596Z,5.40
2023-05-17T03:09:32.982Z,5.97
2023-05-17T03:12:01.210Z,5.00
2023-05-17T03:14:29.431Z,5.60
2023-05-17T03:16:57.852Z,4.67
2023-05-17T03:19:26.424Z,5.00
2023-05-17T03:21:54.732Z,6.10
2023-05-17T03:24:23.009Z,5.70
2023-05-17T03:26:52.656Z,5.67
2023-05-17T03:29:20.937Z,4.40
2023-05-17T03:31:49.321Z,5.97
2023-05-17T03:34:17.575Z,7.73
2023-05-17T03:36:45.952Z,6.90
2023-05-17T03:39:14.300Z,7.07
2023-05-17T03:41:43.026Z,3.90
2023-05-17T03:44:12.702Z,6.10
2023-05-17T03:46:40.974Z,8.77
2023-05-17T03:49:09.306Z,6.77
2023-05-17T03:51:37.684Z,8.70
2023-05-17T03:54:06.189Z,7.13
2023-05-17T03:56:34.415Z,10.03
2023-05-17T03:59:02.749Z,7.77
2023-05-17T04:01:32.385Z,4.70
2023-05-17T04:04:01.418Z,4.23
2023-05-17T04:06:29.759Z,9.33
2023-05-17T04:08:59.636Z,3.83
2023-05-17T04:11:28.106Z,8.53
2023-05-17T04:13:56.849Z,10.10
2023-05-17T04:16:25.142Z,9.90
2023-05-17T04:18:55.145Z,4.63
2023-05-17T04:21:23.517Z,6.33
2023-05-17T04:23:51.779Z,4.33
2023-05-17T04:26:21.939Z,6.23
2023-05-17T04:28:51.217Z,8.63
2023-05-17T04:31:19.815Z,7.60
2023-05-17T04:33:48.161Z,11.10
2023-05-17T04:36:17.846Z,5.67
2023-05-17T04:38:46.346Z,5.27
2023-05-17T04:41:14.608Z,4.33
2023-05-17T04:43:42.920Z,5.30
2023-05-17T04:46:11.589Z,4.10
2023-05-17T04:48:40.055Z,3.80
2023-05-17T04:51:08.564Z,7.47
2023-05-17T04:53:38.365Z,9.07
2023-05-17T04:56:06.911Z,5.00
2023-05-17T04:58:35.199Z,6.47
2023-05-17T05:01:12.001Z,5.30
2023-05-17T05:03:40.378Z,9.03
2023-05-17T05:06:08.881Z,4.73
2023-05-17T05:08:38.598Z,5.60
2023-05-17T05:11:07.066Z,5.60
2023-05-17T05:13:38.216Z,5.00
2023-05-17T05:16:07.142Z,6.27
2023-05-17T05:18:35.459Z,5.53
2023-05-17T05:21:03.824Z,6.17
2023-05-17T05:23:32.056Z,5.63
2023-05-17T05:26:01.744Z,5.07
2023-05-17T05:28:30.025Z,6.00
2023-05-17T05:31:01.381Z,6.37
2023-05-17T05:33:29.753Z,4.73
2023-05-17T05:35:58.071Z,6.33
2023-05-17T05:38:26.359Z,5.63
2023-05-17T05:40:54.696Z,5.80
2023-05-17T05:43:24.330Z,9.47
2023-05-17T05:45:52.644Z,7.07
2023-05-17T05:48:20.970Z,8.10
2023-05-17T05:50:49.458Z,6.00
2023-05-17T05:53:19.774Z,8.10
2023-05-17T05:55:49.541Z,6.90
2023-05-17T05:58:17.821Z,6.33
2023-05-17T06:00:47.440Z,6.40
2023-05-17T06:03:16.116Z,7.07
2023-05-17T06:05:44.550Z,6.07
2023-05-17T06:08:12.856Z,5.27
2023-05-17T06:10:41.112Z,5.93
2023-05-17T06:13:09.572Z,6.77
2023-05-17T06:15:37.863Z,5.63
2023-05-17T06:18:07.887Z,5.57
2023-05-17T06:20:36.189Z,8.17
2023-05-17T06:23:05.225Z,8.27
2023-05-17T06:25:33.530Z,6.17
2023-05-17T06:28:02.790Z,8.23
2023-05-17T06:30:31.326Z,8.23
2023-05-17T06:32:59.912Z,8.33
2023-05-17T06:35:33.016Z,9.93
2023-05-17T06:38:06.061Z,8.83
2023-05-17T06:40:34.481Z,5.60
2023-05-17T06:43:03.206Z,7.50
2023-05-17T06:45:31.418Z,8.83
2023-05-17T06:47:59.931Z,8.40
2023-05-17T06:50:30.742Z,8.70
2023-05-17T06:52:59.372Z,7.60
2023-05-17T06:55:29.573Z,8.57
2023-05-17T06:58:00.142Z,5.73
2023-05-17T07:00:30.834Z,8.57
2023-05-17T07:02:59.956Z,8.87
2023-05-17T07:05:30.967Z,8.00
2023-05-17T07:07:59.922Z,9.60
2023-05-17T07:10:29.193Z,8.87
2023-05-17T07:12:57.502Z,7.27
2023-05-17T07:15:26.031Z,8.47
2023-05-17T07:17:54.396Z,7.77
2023-05-17T07:20:22.742Z,8.33
2023-05-17T07:22:52.409Z,7.60
2023-05-17T07:25:21.486Z,7.77
2023-05-17T07:27:49.710Z,7.63
2023-05-17T07:30:18.238Z,8.10
2023-05-17T07:32:46.543Z,5.00
2023-05-17T07:35:15.177Z,8.77
2023-05-17T07:37:43.654Z,8.90
2023-05-17T07:40:14.144Z,8.43
2023-05-17T07:42:42.417Z,3.57
2023-05-17T07:45:11.282Z,4.60
2023-05-17T07:47:39.767Z,5.93
2023-05-17T07:50:08.733Z,4.30
2023-05-17T07:52:38.087Z,6.60
2023-05-17T07:55:06.700Z,6.20
2023-05-17T07:57:36.384Z,3.93
2023-05-17T08:00:06.304Z,6.43
2023-05-17T08:02:34.838Z,7.30
2023-05-17T08:05:03.142Z,5.87
2023-05-17T08:07:31.526Z,4.27
2023-05-17T08:09:59.928Z,2.50
2023-05-17T08:12:28.377Z,5.97
2023-05-17T08:14:58.009Z,6.43
2023-05-17T08:17:26.310Z,6.77
2023-05-17T08:19:54.647Z,5.27
2023-05-17T08:22:22.924Z,3.67
2023-05-17T08:24:51.443Z,5.40
2023-05-17T08:27:19.691Z,6.37
2023-05-17T08:29:47.913Z,5.90
2023-05-17T08:32:19.652Z,5.40
2023-05-17T08:34:48.204Z,5.80
2023-05-17T08:37:16.571Z,2.53
2023-05-17T08:39:44.939Z,5.87
2023-05-17T08:42:13.350Z,5.37
2023-05-17T08:44:42.067Z,3.37
2023-05-17T08:47:12.200Z,5.43
2023-05-17T08:49:43.142Z,4.37
2023-05-17T08:52:11.623Z,4.50
2023-05-17T08:54:40.055Z,4.00
2023-05-17T08:57:08.698Z,4.50
2023-05-17T08:59:37.224Z,4.33
2023-05-17T09:02:07.334Z,3.57
2023-05-17T09:04:36.193Z,4.57
2023-05-17T09:07:05.902Z,2.77
2023-05-17T09:09:35.090Z,4.30
2023-05-17T09:12:04.203Z,4.13
2023-05-17T09:14:35.673Z,2.90
2023-05-17T09:17:04.214Z,3.80
2023-05-17T09:19:32.852Z,4.17
2023-05-17T09:22:02.557Z,4.93
2023-05-17T09:24:32.275Z,3.10
2023-05-17T09:27:04.339Z,3.33
2023-05-17T09:29:33.419Z,2.60
2023-05-17T09:32:13.748Z,4.73
2023-05-17T09:34:42.425Z,1.70
2023-05-17T09:37:17.820Z,3.97
2023-05-17T09:39:47.968Z,3.60
2023-05-17T09:42:17.118Z,2.80
2023-05-17T09:44:53.360Z,1.57
2023-05-17T09:47:25.295Z,3.23
2023-05-17T09:49:53.636Z,3.57
2023-05-17T09:52:22.426Z,2.30
2023-05-17T09:54:55.105Z,3.23
2023-05-17T09:57:23.380Z,2.63
2023-05-17T09:59:53.056Z,4.13
2023-05-17T10:02:22.976Z,4.03
2023-05-17T10:04:52.304Z,1.87
2023-05-17T10:07:21.524Z,1.67
2023-05-17T10:09:50.876Z,1.23
2023-05-17T10:12:22.552Z,2.00
2023-05-17T10:14:52.740Z,3.27
2023-05-17T10:17:21.224Z,3.20
2023-05-17T10:19:49.953Z,3.17
2023-05-17T10:22:23.436Z,2.57
2023-05-17T10:24:52.728Z,1.80
2023-05-17T10:27:22.587Z,2.47
2023-05-17T10:29:51.424Z,3.50
2023-05-17T10:32:23.236Z,2.20
2023-05-17T10:35:05.886Z,3.00
2023-05-17T10:37:39.482Z,4.10
2023-05-17T10:40:12.999Z,3.70
2023-05-17T10:42:43.112Z,3.73
2023-05-17T10:45:13.366Z,2.90
2023-05-17T10:47:42.804Z,2.10
2023-05-17T10:50:13.181Z,2.43
2023-05-17T10:52:47.239Z,3.03
2023-05-17T10:55:15.502Z,3.83
2023-05-17T10:57:50.956Z,1.70
2023-05-17T11:00:22.235Z,2.73
2023-05-17T11:02:51.083Z,2.20
2023-05-17T11:05:26.158Z,2.63
2023-05-17T11:07:54.938Z,1.90
2023-05-17T11:10:23.324Z,3.00
2023-05-17T11:12:55.395Z,1.80
2023-05-17T11:15:25.340Z,2.50
2023-05-17T11:17:56.184Z,2.77
2023-05-17T11:20:37.913Z,2.90
2023-05-17T11:23:07.668Z,4.40
2023-05-17T11:25:36.802Z,1.60
2023-05-17T11:28:10.101Z,2.67
2023-05-17T11:30:42.640Z,2.73
2023-05-17T11:33:24.873Z,2.90
2023-05-17T11:35:59.441Z,2.60
2023-05-17T11:38:31.720Z,3.10
2023-05-17T11:41:01.245Z,3.00
2023-05-17T11:43:31.710Z,3.93
2023-05-17T11:46:01.572Z,2.73
2023-05-17T11:48:31.758Z,2.97
2023-05-17T11:51:02.145Z,0.90
2023-05-17T11:53:32.661Z,1.90
2023-05-17T11:56:05.147Z,2.60
2023-05-17T11:58:35.102Z,2.47
2023-05-17T12:01:04.270Z,2.33
2023-05-17T12:03:33.327Z,2.30
2023-05-17T12:06:06.221Z,3.10
2023-05-17T12:08:35.227Z,2.53
2023-05-17T12:11:03.909Z,2.83
2023-05-17T12:13:33.054Z,2.50
2023-05-17T12:16:05.716Z,2.50
2023-05-17T12:18:37.979Z,2.23
2023-05-17T12:21:06.727Z,4.90
2023-05-17T12:23:35.645Z,2.43
2023-05-17T12:26:04.866Z,2.43
2023-05-17T12:28:33.810Z,2.40
2023-05-17T12:31:03.927Z,2.80
2023-05-17T12:33:33.433Z,2.40
2023-05-17T12:36:03.238Z,2.80
2023-05-17T12:38:33.204Z,2.30
2023-05-17T12:41:03.043Z,2.30
2023-05-17T12:43:31.817Z,2.70
2023-05-17T12:46:09.282Z,2.67
2023-05-17T12:48:37.692Z,3.80
2023-05-17T12:51:11.833Z,1.17
2023-05-17T12:53:40.925Z,1.67
2023-05-17T12:56:10.004Z,1.97
2023-05-17T12:58:38.332Z,2.43
2023-05-17T13:01:10.705Z,3.20
2023-05-17T13:03:40.595Z,3.23
2023-05-17T13:06:10.347Z,2.23
2023-05-17T13:08:38.740Z,3.77
2023-05-17T13:11:07.955Z,2.90
2023-05-17T13:13:36.320Z,2.70
2023-05-17T13:16:04.892Z,2.43
2023-05-17T13:18:35.698Z,3.30
2023-05-17T13:21:05.601Z,3.10
2023-05-17T13:23:33.864Z,1.30
2023-05-17T13:26:02.124Z,1.07
2023-05-17T13:28:30.389Z,2.67
2023-05-17T13:30:58.618Z,3.93
2023-05-17T13:33:27.815Z,3.20
2023-05-17T13:35:56.120Z,3.60
2023-05-17T13:38:25.742Z,3.60
2023-05-17T13:40:54.074Z,3.30
2023-05-17T13:43:22.299Z,3.10
2023-05-17T13:45:54.489Z,2.80
2023-05-17T13:48:22.851Z,2.23
2023-05-17T13:50:52.193Z,2.70
2023-05-17T13:53:20.521Z,2.40
2023-05-17T13:55:50.093Z,3.40
2023-05-17T13:58:18.371Z,2.50
2023-05-17T14:00:46.764Z,2.80
2023-05-17T14:03:15.515Z,2.93
2023-05-17T14:05:44.232Z,2.90
2023-05-17T14:08:12.832Z,1.73
2023-05-17T14:10:41.092Z,2.70
2023-05-17T14:13:11.866Z,2.20
2023-05-17T14:15:40.228Z,2.73
2023-05-17T14:18:09.007Z,3.50
2023-05-17T14:20:37.368Z,2.57
2023-05-17T14:23:05.959Z,2.53
2023-05-17T14:25:34.273Z,3.30
2023-05-17T14:28:02.543Z,3.27
2023-05-17T14:30:32.282Z,2.97
2023-05-17T14:33:01.304Z,2.43
2023-05-17T14:35:30.315Z,3.63
2023-05-17T14:37:58.684Z,3.47
2023-05-17T14:40:27.470Z,4.10
2023-05-17T14:42:57.110Z,2.50
2023-05-17T14:45:25.445Z,2.70
2023-05-17T14:47:55.102Z,3.70
2023-05-17T14:50:23.457Z,3.63
2023-05-17T14:52:51.788Z,2.40
2023-05-17T14:55:20.076Z,2.23
2023-05-17T14:57:50.294Z,2.50
2023-05-17T15:00:18.930Z,2.80
2023-05-17T15:02:49.282Z,2.73
2023-05-17T15:05:19.801Z,2.43
2023-05-17T15:07:48.570Z,2.40
2023-05-17T15:10:17.630Z,1.73
2023-05-17T15:12:46.033Z,2.30
2023-05-17T15:15:14.495Z,3.07
2023-05-17T15:17:43.022Z,1.30
2023-05-17T15:20:12.174Z,2.70
2023-05-17T15:22:42.226Z,3.77
2023-05-17T15:25:10.578Z,2.43
2023-05-17T15:27:39.025Z,3.43
2023-05-17T15:30:08.187Z,1.70
2023-05-17T15:32:36.711Z,2.30
2023-05-17T15:35:05.674Z,2.90
2023-05-17T15:37:33.973Z,2.90
2023-05-17T15:40:07.981Z,2.20
2023-05-17T15:42:36.240Z,3.00
2023-05-17T15:45:04.566Z,2.60
2023-05-17T15:50:04.947Z,2.50
2023-05-17T15:52:33.194Z,2.30
2023-05-17T15:55:01.461Z,2.73
2023-05-17T15:57:31.134Z,2.67
2023-05-17T15:59:59.534Z,1.90
2023-05-17T16:02:29.937Z,2.13
2023-05-17T16:04:58.987Z,2.40
2023-05-17T16:07:28.778Z,2.33
2023-05-17T16:09:59.767Z,2.17
2023-05-17T16:12:28.005Z,2.77
2023-05-17T16:15:03.912Z,2.00
2023-05-17T16:17:32.195Z,2.70
2023-05-17T16:20:00.708Z,2.07
2023-05-17T16:22:29.099Z,3.93
2023-05-17T16:24:57.369Z,2.63
2023-05-17T16:27:25.926Z,3.00
2023-05-17T16:29:54.371Z,2.73
2023-05-17T16:32:24.123Z,3.23
2023-05-17T16:34:52.395Z,3.97
2023-05-17T16:37:20.628Z,3.73
2023-05-17T16:39:50.152Z,2.70
2023-05-17T16:42:18.774Z,2.33
2023-05-17T16:44:47.109Z,2.07
2023-05-17T16:47:15.456Z,1.40
2023-05-17T16:49:45.290Z,2.50
2023-05-17T16:52:13.602Z,2.63
2023-05-17T16:54:42.059Z,2.20
2023-05-17T16:57:10.469Z,2.07
2023-05-17T16:59:39.166Z,1.67
2023-05-17T17:02:07.723Z,2.77
2023-05-17T17:04:36.093Z,2.53
2023-05-17T17:07:06.062Z,3.00
2023-05-17T17:09:34.315Z,2.03
2023-05-17T17:12:09.507Z,2.50
2023-05-17T17:14:45.000Z,1.50
2023-05-17T17:17:13.428Z,3.10
2023-05-17T17:19:42.362Z,1.70
2023-05-17T17:22:14.141Z,2.20
2023-05-17T17:24:43.711Z,3.53
2023-05-17T17:27:12.092Z,3.37
2023-05-17T17:29:40.411Z,2.10
2023-05-17T17:32:09.476Z,2.60
2023-05-17T17:34:37.740Z,3.20
2023-05-17T17:37:06.224Z,2.83
2023-05-17T17:39:36.250Z,3.33
2023-05-17T17:42:05.940Z,0.93
2023-05-17T17:44:34.567Z,2.80
2023-05-17T17:47:03.125Z,2.30
2023-05-17T17:49:31.521Z,2.20
2023-05-17T17:51:59.840Z,2.90
2023-05-17T17:54:28.353Z,2.37
2023-05-17T17:56:58.226Z,3.00
2023-05-17T17:59:26.601Z,3.00
2023-05-17T18:01:54.858Z,2.17
2023-05-17T18:04:23.245Z,2.23
2023-05-17T18:06:51.566Z,3.67
2023-05-17T18:09:19.946Z,1.93
2023-05-17T18:11:49.281Z,3.37
2023-05-17T18:14:19.504Z,2.70
2023-05-17T18:16:47.852Z,2.53
2023-05-17T18:19:16.159Z,2.57
2023-05-17T18:21:51.330Z,1.77
2023-05-17T18:24:19.819Z,2.20
2023-05-17T18:26:48.064Z,2.50
2023-05-17T18:29:16.726Z,2.20
2023-05-17T18:31:48.612Z,2.00
2023-05-17T18:34:16.938Z,2.30
2023-05-17T18:36:45.935Z,2.40
2023-05-17T18:39:14.287Z,3.00
2023-05-17T18:41:42.568Z,1.73
2023-05-17T18:44:15.836Z,2.27
2023-05-17T18:46:45.185Z,2.30
2023-05-17T18:49:15.476Z,2.93
2023-05-17T18:51:43.825Z,2.90
2023-05-17T18:54:14.496Z,3.03
2023-05-17T18:56:42.835Z,2.63
2023-05-17T18:59:11.353Z,2.43
2023-05-17T19:01:39.783Z,2.37
2023-05-17T19:04:10.223Z,2.73
2023-05-17T19:06:41.472Z,2.30
2023-05-17T19:09:09.996Z,2.40
2023-05-17T19:11:38.623Z,3.23
2023-05-17T19:14:07.350Z,3.00
2023-05-17T19:16:35.663Z,3.00
2023-05-17T19:19:04.324Z,3.63
2023-05-17T19:21:32.752Z,2.00
2023-05-17T19:24:05.655Z,2.97
2023-05-17T19:26:33.987Z,2.10
2023-05-17T19:29:02.285Z,2.60
2023-05-17T19:31:30.611Z,2.90
2023-05-17T19:33:59.535Z,2.87
2023-05-17T19:36:27.867Z,2.90
2023-05-17T19:38:56.167Z,2.60
2023-05-17T19:41:26.229Z,3.80
2023-05-17T19:43:54.522Z,3.20
2023-05-17T19:46:23.187Z,3.60
2023-05-17T19:48:52.542Z,2.17
2023-05-17T19:51:21.156Z,1.90
2023-05-17T19:53:53.611Z,3.33
2023-05-17T19:56:26.351Z,3.83
2023-05-17T19:58:56.314Z,2.67
2023-05-17T20:01:24.659Z,2.97
2023-05-17T20:03:53.231Z,2.80
2023-05-17T20:06:21.654Z,2.87
2023-05-17T20:08:50.041Z,2.50
2023-05-17T20:11:18.461Z,2.30
2023-05-17T20:13:46.915Z,2.70
2023-05-17T20:16:17.305Z,3.67
2023-05-17T20:18:46.313Z,2.43
2023-05-17T20:21:18.654Z,3.17
2023-05-17T20:23:47.629Z,3.40
2023-05-17T20:26:18.788Z,3.33
2023-05-17T20:28:47.664Z,3.63
2023-05-17T20:31:17.487Z,3.60
2023-05-17T20:33:46.048Z,3.30
2023-05-17T20:36:14.763Z,3.00
2023-05-17T20:38:44.228Z,2.90
2023-05-17T20:41:14.967Z,4.20
2023-05-17T20:43:45.192Z,2.63
2023-05-17T20:46:13.619Z,2.47
2023-05-17T20:48:47.927Z,3.70
2023-05-17T20:51:17.606Z,3.90
2023-05-17T20:53:46.343Z,4.20
2023-05-17T20:56:16.112Z,3.47
2023-05-17T20:58:47.653Z,2.30
2023-05-17T21:01:16.069Z,4.17
2023-05-17T21:03:45.920Z,3.40
2023-05-17T21:06:27.253Z,3.17
2023-05-17T21:08:55.522Z,3.90
2023-05-17T21:11:24.353Z,4.20
2023-05-17T21:13:52.615Z,3.40
2023-05-17T21:16:21.269Z,4.30
2023-05-17T21:19:04.975Z,2.80
2023-05-17T21:21:33.317Z,3.93
2023-05-17T21:24:02.256Z,4.23
2023-05-17T21:26:30.634Z,4.53
2023-05-17T21:28:58.850Z,4.67
2023-05-17T21:31:28.168Z,4.00
2023-05-17T21:33:56.454Z,3.57
2023-05-17T21:36:26.264Z,3.83
2023-05-17T21:38:54.533Z,4.37
2023-05-17T21:41:22.829Z,3.50
2023-05-17T21:43:51.275Z,4.60
2023-05-17T21:46:19.757Z,3.27
2023-05-17T21:48:48.028Z,2.07
2023-05-17T21:51:16.884Z,3.87
2023-05-17T21:53:46.551Z,3.93
2023-05-17T21:56:14.813Z,3.30
2023-05-17T21:58:43.164Z,4.90
2023-05-17T22:01:11.545Z,3.87
2023-05-17T22:03:39.973Z,3.90
2023-05-17T22:06:08.484Z,4.00
2023-05-17T22:08:36.951Z,3.97
2023-05-17T22:11:06.889Z,3.80
2023-05-17T22:13:35.152Z,3.27
2023-05-17T22:16:03.458Z,3.90
2023-05-17T22:18:32.320Z,4.53
2023-05-17T22:21:00.701Z,4.27
2023-05-17T22:23:28.995Z,2.53
2023-05-17T22:26:00.086Z,3.97
2023-05-17T22:28:29.778Z,3.93
2023-05-17T22:30:58.122Z,3.43
2023-05-17T22:33:29.604Z,4.90
2023-05-17T22:35:58.771Z,3.80
2023-05-17T22:38:27.130Z,5.40
2023-05-17T22:40:55.840Z,3.73
2023-05-17T22:43:25.872Z,4.40
2023-05-17T22:45:59.678Z,4.47
2023-05-17T22:48:30.297Z,5.00
2023-05-17T22:50:58.840Z,5.40
2023-05-17T22:53:27.082Z,5.43
2023-05-17T22:55:55.464Z,5.23
2023-05-17T22:58:24.361Z,4.97
2023-05-17T23:00:52.678Z,4.70
2023-05-17T23:03:22.363Z,4.13
2023-05-17T23:06:02.051Z,4.60
2023-05-17T23:08:30.919Z,4.40
2023-05-17T23:10:59.362Z,5.00
2023-05-17T23:13:27.642Z,4.37
2023-05-17T23:15:56.782Z,4.97
2023-05-17T23:18:27.498Z,4.73
2023-05-17T23:20:55.899Z,4.83
2023-05-17T23:23:24.169Z,4.60
2023-05-17T23:25:52.438Z,5.03
2023-05-17T23:28:20.696Z,5.50
2023-05-17T23:30:49.958Z,5.50
2023-05-17T23:33:21.362Z,5.40
2023-05-17T23:35:51.140Z,4.43
2023-05-17T23:38:19.439Z,4.80
2023-05-17T23:40:47.717Z,6.27
2023-05-17T23:43:15.966Z,5.07
2023-05-17T23:45:44.185Z,4.80
2023-05-17T23:48:12.506Z,5.30
2023-05-17T23:50:40.879Z,4.80
2023-05-17T23:53:10.517Z,5.00
2023-05-17T23:55:38.862Z,4.87
2023-05-17T23:58:07.137Z,4.70
